createdAt,value
2023-02-11T00:01:11.651Z,58.00
2023-02-11T00:03:39.007Z,45.00
2023-02-11T00:06:11.460Z,53.23
2023-02-11T00:08:39.519Z,53.97
2023-02-11T00:11:07.302Z,55.17
2023-02-11T00:13:34.261Z,50.80
2023-02-11T00:16:09.795Z,59.10
2023-02-11T00:18:37.034Z,50.67
2023-02-11T00:21:17.380Z,52.60
2023-02-11T00:23:45.223Z,51.37
2023-02-11T00:26:19.105Z,57.73
2023-02-11T00:28:48.352Z,48.77
2023-02-11T00:31:18.045Z,48.70
2023-02-11T00:33:46.080Z,50.60
2023-02-11T00:36:23.923Z,50.87
2023-02-11T00:38:53.248Z,46.70
2023-02-11T00:41:21.866Z,50.87
2023-02-11T00:43:49.706Z,50.73
2023-02-11T00:46:16.965Z,48.13
2023-02-11T00:48:44.869Z,50.93
2023-02-11T00:51:12.615Z,51.60
2023-02-11T00:53:40.025Z,49.57
2023-02-11T00:56:08.117Z,51.63
2023-02-11T00:58:35.465Z,55.43
2023-02-11T01:01:02.565Z,48.73
2023-02-11T01:03:29.602Z,50.97
2023-02-11T01:05:56.909Z,48.63
2023-02-11T01:08:23.850Z,48.27
2023-02-11T01:10:59.465Z,48.00
2023-02-11T01:13:28.249Z,46.17
2023-02-11T01:15:57.073Z,46.73
2023-02-11T01:18:25.516Z,45.97
2023-02-11T01:20:54.028Z,48.70
2023-02-11T01:23:21.607Z,48.80
2023-02-11T01:25:48.995Z,46.83
2023-02-11T01:28:25.866Z,47.20
2023-02-11T01:30:53.904Z,49.60
2023-02-11T01:33:22.689Z,51.67
2023-02-11T01:35:50.371Z,50.00
2023-02-11T01:38:23.026Z,47.60
2023-02-11T01:41:07.130Z,36.20
2023-02-11T01:43:43.122Z,36.73
2023-02-11T01:46:33.453Z,49.57
2023-02-11T01:49:10.206Z,43.33
2023-02-11T01:52:09.415Z,48.10
2023-02-11T01:55:07.216Z,51.40
2023-02-11T01:57:38.159Z,51.00
2023-02-11T02:00:11.360Z,48.97
2023-02-11T02:03:04.494Z,52.30
2023-02-11T02:06:17.518Z,39.43
2023-02-11T02:08:52.966Z,42.83
2023-02-11T02:11:20.005Z,50.43
2023-02-11T02:13:47.200Z,42.67
2023-02-11T02:16:18.831Z,43.60
2023-02-11T02:19:44.170Z,40.30
2023-02-11T02:22:54.977Z,47.17
2023-02-11T02:26:19.857Z,40.00
2023-02-11T02:28:52.796Z,48.60
2023-02-11T02:31:31.895Z,45.33
2023-02-11T02:34:19.997Z,53.77
2023-02-11T02:37:01.453Z,52.20
2023-02-11T02:39:34.249Z,47.10
2023-02-11T02:42:02.556Z,43.70
2023-02-11T02:44:31.565Z,48.67
2023-02-11T02:46:58.689Z,39.87
2023-02-11T02:49:25.692Z,44.63
2023-02-11T02:52:26.580Z,41.00
2023-02-11T02:55:23.807Z,41.73
2023-02-11T02:58:29.242Z,34.07
2023-02-11T03:01:24.542Z,43.70
2023-02-11T03:04:13.481Z,44.43
2023-02-11T03:07:17.430Z,45.00
2023-02-11T03:09:58.834Z,40.93
2023-02-11T03:12:30.984Z,48.43
2023-02-11T03:14:59.863Z,56.83
2023-02-11T03:17:29.787Z,41.97
2023-02-11T03:19:59.633Z,48.37
2023-02-11T03:22:35.744Z,48.07
2023-02-11T03:25:03.750Z,47.30
2023-02-11T03:27:44.335Z,43.47
2023-02-11T03:30:29.652Z,44.87
2023-02-11T03:33:07.170Z,48.07
2023-02-11T03:35:49.813Z,55.07
2023-02-11T03:38:36.561Z,39.87
2023-02-11T03:41:07.394Z,51.63
2023-02-11T03:43:41.240Z,41.20
2023-02-11T03:46:10.852Z,44.83
2023-02-11T03:48:47.539Z,49.33
2023-02-11T03:51:17.063Z,47.00
2023-02-11T03:53:47.364Z,50.07
2023-02-11T03:56:23.682Z,53.50
2023-02-11T03:58:51.181Z,50.10
2023-02-11T04:01:18.312Z,46.03
2023-02-11T04:03:45.205Z,49.20
2023-02-11T04:06:12.278Z,48.90
2023-02-11T04:08:39.339Z,47.23
2023-02-11T04:11:06.251Z,53.23
2023-02-11T04:13:33.194Z,45.33
2023-02-11T04:16:00.250Z,48.50
2023-02-11T04:18:27.440Z,46.60
2023-02-11T04:20:54.424Z,42.87
2023-02-11T04:23:21.489Z,40.50
2023-02-11T04:25:50.809Z,39.60
2023-02-11T04:28:18.162Z,51.67
2023-02-11T04:30:45.149Z,42.10
2023-02-11T04:33:12.106Z,40.50
2023-02-11T04:35:38.998Z,47.43
2023-02-11T04:38:06.072Z,48.00
2023-02-11T04:40:33.125Z,45.83
2023-02-11T04:43:00.119Z,41.40
2023-02-11T04:45:27.024Z,43.67
2023-02-11T04:47:53.926Z,44.20
2023-02-11T04:50:20.837Z,39.87
2023-02-11T04:52:47.787Z,39.23
2023-02-11T04:55:14.747Z,44.47
2023-02-11T04:57:41.756Z,45.23
2023-02-11T05:00:10.193Z,41.97
2023-02-11T05:02:37.130Z,37.67
2023-02-11T05:05:04.649Z,39.80
2023-02-11T05:07:32.032Z,37.83
2023-02-11T05:09:59.110Z,36.07
2023-02-11T05:12:26.146Z,38.57
2023-02-11T05:14:53.145Z,45.80
2023-02-11T05:17:20.250Z,39.80
2023-02-11T05:19:47.161Z,35.77
2023-02-11T05:22:14.116Z,43.80
2023-02-11T05:24:41.302Z,48.27
2023-02-11T05:27:08.235Z,43.70
2023-02-11T05:29:35.225Z,39.27
2023-02-11T05:32:02.207Z,36.50
2023-02-11T05:34:29.131Z,43.27
2023-02-11T05:36:56.618Z,37.20
2023-02-11T05:39:23.540Z,38.13
2023-02-11T05:41:50.462Z,38.77
2023-02-11T05:44:17.388Z,41.20
2023-02-11T05:46:44.445Z,44.97
2023-02-11T05:49:11.363Z,44.77
2023-02-11T05:51:38.405Z,42.10
2023-02-11T05:54:05.760Z,45.67
2023-02-11T05:56:32.640Z,40.57
2023-02-11T05:59:00.565Z,38.60
2023-02-11T06:01:27.686Z,39.60
2023-02-11T06:03:55.308Z,35.93
2023-02-11T06:06:22.491Z,37.87
2023-02-11T06:08:49.440Z,36.10
2023-02-11T06:11:17.958Z,37.80
2023-02-11T06:13:44.955Z,38.90
2023-02-11T06:16:11.916Z,38.30
2023-02-11T06:18:38.946Z,40.03
2023-02-11T06:21:11.199Z,41.37
2023-02-11T06:23:39.086Z,41.63
2023-02-11T06:26:09.089Z,49.17
2023-02-11T06:28:36.387Z,37.77
2023-02-11T06:31:08.223Z,38.63
2023-02-11T06:33:36.317Z,41.30
2023-02-11T06:36:05.460Z,51.43
2023-02-11T06:38:32.496Z,52.73
2023-02-11T06:40:59.413Z,60.50
2023-02-11T06:43:26.467Z,64.40
2023-02-11T06:45:56.690Z,67.50
2023-02-11T06:48:24.040Z,63.30
2023-02-11T06:50:51.013Z,43.07
2023-02-11T06:53:17.930Z,36.93
2023-02-11T06:55:44.963Z,40.77
2023-02-11T06:58:11.937Z,39.80
2023-02-11T07:00:39.115Z,45.10
2023-02-11T07:03:06.141Z,40.07
2023-02-11T07:05:34.498Z,51.47
2023-02-11T07:08:01.779Z,43.43
2023-02-11T07:10:28.796Z,47.07
2023-02-11T07:12:58.447Z,40.30
2023-02-11T07:15:25.974Z,36.60
2023-02-11T07:17:52.973Z,35.77
2023-02-11T07:20:20.101Z,32.80
2023-02-11T07:22:47.066Z,28.73
2023-02-11T07:25:14.195Z,30.00
2023-02-11T07:27:41.154Z,37.20
2023-02-11T07:30:09.342Z,32.07
2023-02-11T07:32:36.342Z,34.67
2023-02-11T07:35:04.090Z,45.13
2023-02-11T07:37:31.133Z,40.00
2023-02-11T07:39:58.104Z,34.10
2023-02-11T07:42:24.982Z,30.30
2023-02-11T07:44:51.963Z,35.43
2023-02-11T07:47:18.926Z,35.90
2023-02-11T07:49:46.274Z,32.80
2023-02-11T07:52:13.274Z,33.83
2023-02-11T07:54:40.492Z,31.33
2023-02-11T07:57:07.443Z,29.67
2023-02-11T07:59:34.519Z,35.03
2023-02-11T08:02:01.609Z,30.47
2023-02-11T08:04:29.002Z,28.67
2023-02-11T08:06:59.103Z,31.37
2023-02-11T08:09:26.218Z,32.83
2023-02-11T08:11:53.217Z,32.87
2023-02-11T08:14:20.894Z,29.63
2023-02-11T08:16:48.058Z,29.83
2023-02-11T08:19:16.857Z,37.40
2023-02-11T08:21:44.525Z,32.97
2023-02-11T08:24:12.488Z,40.67
2023-02-11T08:26:39.676Z,43.70
2023-02-11T08:29:11.864Z,39.10
2023-02-11T08:31:42.746Z,39.20
2023-02-11T08:34:11.721Z,37.17
2023-02-11T08:36:40.619Z,41.70
2023-02-11T08:39:19.745Z,37.50
2023-02-11T08:41:54.315Z,36.73
2023-02-11T08:44:22.891Z,33.40
2023-02-11T08:46:51.652Z,32.67
2023-02-11T08:49:19.461Z,34.23
2023-02-11T08:51:47.317Z,34.73
2023-02-11T08:54:15.342Z,34.10
2023-02-11T08:56:43.250Z,34.97
2023-02-11T08:59:15.247Z,31.10
2023-02-11T09:01:42.438Z,31.50
2023-02-11T09:04:10.828Z,32.93
2023-02-11T09:06:37.813Z,31.80
2023-02-11T09:09:05.009Z,26.80
2023-02-11T09:11:35.808Z,31.33
2023-02-11T09:14:04.750Z,31.87
2023-02-11T09:16:36.377Z,32.00
2023-02-11T09:19:05.479Z,31.00
2023-02-11T09:21:32.574Z,28.10
2023-02-11T09:23:59.626Z,26.07
2023-02-11T09:26:30.541Z,28.80
2023-02-11T09:28:58.041Z,26.37
2023-02-11T09:31:28.491Z,28.03
2023-02-11T09:34:04.623Z,28.47
2023-02-11T09:36:40.548Z,29.90
2023-02-11T09:39:13.883Z,24.70
2023-02-11T09:42:41.150Z,29.30
2023-02-11T09:45:27.999Z,26.90
2023-02-11T09:48:14.258Z,25.43
2023-02-11T09:50:47.126Z,27.03
2023-02-11T09:53:29.980Z,24.83
2023-02-11T09:56:01.234Z,27.07
2023-02-11T09:58:35.146Z,36.17
2023-02-11T10:01:07.836Z,27.67
2023-02-11T10:04:15.098Z,25.40
2023-02-11T10:06:47.462Z,28.10
2023-02-11T10:09:51.923Z,24.90
2023-02-11T10:13:02.479Z,26.27
2023-02-11T10:15:57.373Z,27.97
2023-02-11T10:19:05.392Z,25.77
2023-02-11T10:21:58.713Z,24.50
2023-02-11T10:24:28.368Z,26.87
2023-02-11T10:26:55.700Z,26.77
2023-02-11T10:29:42.161Z,24.83
2023-02-11T10:32:49.919Z,27.63
2023-02-11T10:35:22.502Z,30.67
2023-02-11T10:37:50.230Z,26.83
2023-02-11T10:40:24.783Z,29.20
2023-02-11T10:42:56.094Z,29.17
2023-02-11T10:45:36.653Z,27.40
2023-02-11T10:48:45.130Z,27.43
2023-02-11T10:51:23.757Z,22.60
2023-02-11T10:54:08.411Z,27.37
2023-02-11T10:56:40.839Z,23.93
2023-02-11T10:59:27.235Z,23.93
2023-02-11T11:02:00.755Z,25.73
2023-02-11T11:04:30.693Z,19.50
2023-02-11T11:07:10.768Z,20.53
2023-02-11T11:10:07.593Z,19.17
2023-02-11T11:12:42.197Z,24.53
2023-02-11T11:15:24.256Z,21.97
2023-02-11T11:18:23.208Z,21.10
2023-02-11T11:21:03.878Z,18.90
2023-02-11T11:23:31.349Z,18.10
2023-02-11T11:26:07.396Z,18.00
2023-02-11T11:29:14.851Z,19.10
2023-02-11T11:31:57.041Z,22.23
2023-02-11T11:34:27.632Z,22.90
2023-02-11T11:36:57.365Z,19.30
2023-02-11T11:39:35.314Z,21.20
2023-02-11T11:42:20.661Z,21.13
2023-02-11T11:45:02.064Z,20.03
2023-02-11T11:48:16.921Z,23.40
2023-02-11T11:51:02.260Z,21.00
2023-02-11T11:53:46.217Z,22.13
2023-02-11T11:56:27.029Z,23.33
2023-02-11T11:58:54.761Z,20.93
2023-02-11T12:01:56.436Z,21.37
2023-02-11T12:04:51.137Z,20.53
2023-02-11T12:07:45.651Z,27.60
2023-02-11T12:10:38.330Z,22.43
2023-02-11T12:13:44.027Z,20.60
2023-02-11T12:16:16.760Z,24.37
2023-02-11T12:19:33.922Z,27.07
2023-02-11T12:22:37.345Z,28.17
2023-02-11T12:25:44.338Z,23.07
2023-02-11T12:28:38.881Z,25.60
2023-02-11T12:32:08.425Z,24.80
2023-02-11T12:35:24.176Z,26.37
2023-02-11T12:38:36.706Z,23.77
2023-02-11T12:41:47.826Z,25.00
2023-02-11T12:44:52.070Z,24.70
2023-02-11T12:47:27.312Z,21.40
2023-02-11T12:50:02.872Z,26.03
2023-02-11T12:52:54.372Z,23.80
2023-02-11T12:55:28.869Z,28.73
2023-02-11T12:57:59.734Z,27.77
2023-02-11T13:00:46.006Z,25.73
2023-02-11T13:03:28.968Z,21.63
2023-02-11T13:06:04.128Z,25.73
2023-02-11T13:08:54.962Z,22.70
2023-02-11T13:11:40.833Z,23.13
2023-02-11T13:14:27.885Z,29.10
2023-02-11T13:16:58.593Z,20.17
2023-02-11T13:19:34.681Z,24.40
2023-02-11T13:22:17.912Z,24.63
2023-02-11T13:24:53.775Z,21.33
2023-02-11T13:27:42.748Z,23.40
2023-02-11T13:30:35.364Z,22.03
2023-02-11T13:33:25.502Z,25.00
2023-02-11T13:35:58.712Z,26.03
2023-02-11T13:38:29.359Z,23.20
2023-02-11T13:41:13.981Z,26.33
2023-02-11T13:43:41.144Z,22.90
2023-02-11T13:46:12.377Z,24.30
2023-02-11T13:48:47.617Z,24.30
2023-02-11T13:51:18.353Z,25.80
2023-02-11T13:53:51.288Z,23.80
2023-02-11T13:56:39.772Z,30.20
2023-02-11T13:59:25.238Z,22.30
2023-02-11T14:02:23.772Z,25.13
2023-02-11T14:05:24.788Z,24.50
2023-02-11T14:08:28.236Z,20.97
2023-02-11T14:11:08.928Z,22.43
2023-02-11T14:13:48.111Z,23.30
2023-02-11T14:16:35.612Z,22.00
2023-02-11T14:19:04.800Z,23.00
2023-02-11T14:21:39.278Z,23.47
2023-02-11T14:24:07.389Z,20.67
2023-02-11T14:26:49.028Z,20.53
2023-02-11T14:29:37.641Z,18.37
2023-02-11T14:32:43.612Z,21.00
2023-02-11T14:35:59.273Z,22.03
2023-02-11T14:38:58.633Z,19.53
2023-02-11T14:41:29.774Z,20.40
2023-02-11T14:44:07.680Z,19.97
2023-02-11T14:46:35.586Z,19.70
2023-02-11T14:49:05.538Z,17.80
2023-02-11T14:51:37.424Z,21.80
2023-02-11T14:54:17.794Z,20.40
2023-02-11T14:56:46.933Z,21.63
2023-02-11T14:59:22.071Z,24.20
2023-02-11T15:01:56.699Z,19.53
2023-02-11T15:04:29.007Z,21.57
2023-02-11T15:07:00.111Z,30.03
2023-02-11T15:09:43.227Z,23.27
2023-02-11T15:12:24.318Z,43.73
2023-02-11T15:14:55.584Z,34.90
2023-02-11T15:17:29.917Z,31.17
2023-02-11T15:20:01.167Z,35.53
2023-02-11T15:22:36.757Z,28.13
2023-02-11T15:25:17.506Z,26.87
2023-02-11T15:27:51.701Z,31.63
2023-02-11T15:30:21.713Z,20.30
2023-02-11T15:33:00.861Z,19.60
2023-02-11T15:35:41.256Z,20.57
2023-02-11T15:38:13.380Z,22.30
2023-02-11T15:40:40.329Z,22.40
2023-02-11T15:43:10.656Z,25.20
2023-02-11T15:45:56.683Z,20.50
2023-02-11T15:48:50.423Z,21.80
2023-02-11T15:51:30.093Z,22.13
2023-02-11T15:54:00.670Z,21.03
2023-02-11T15:56:43.276Z,18.67
2023-02-11T15:59:20.899Z,23.07
2023-02-11T16:01:49.592Z,22.80
2023-02-11T16:04:22.117Z,26.33
2023-02-11T16:06:51.150Z,31.03
2023-02-11T16:09:36.541Z,26.80
2023-02-11T16:12:29.471Z,50.80
2023-02-11T16:14:59.880Z,30.03
2023-02-11T16:17:29.317Z,22.47
2023-02-11T16:19:56.737Z,30.50
2023-02-11T16:22:30.168Z,28.00
2023-02-11T16:25:00.268Z,29.10
2023-02-11T16:27:41.794Z,31.80
2023-02-11T16:30:27.376Z,28.20
2023-02-11T16:32:55.167Z,45.40
2023-02-11T16:35:22.173Z,61.37
2023-02-11T16:37:49.113Z,30.60
2023-02-11T16:40:16.767Z,35.63
2023-02-11T16:42:43.640Z,32.50
2023-02-11T16:45:10.814Z,37.30
2023-02-11T16:47:41.181Z,37.07
2023-02-11T16:50:21.333Z,40.37
2023-02-11T16:52:48.732Z,36.83
2023-02-11T16:55:15.762Z,36.40
2023-02-11T16:57:42.755Z,31.73
2023-02-11T17:00:11.909Z,27.07
2023-02-11T17:02:39.610Z,29.80
2023-02-11T17:05:17.597Z,27.67
2023-02-11T17:07:44.611Z,22.27
2023-02-11T17:10:20.961Z,23.23
2023-02-11T17:12:50.145Z,24.17
2023-02-11T17:15:17.430Z,24.20
2023-02-11T17:17:45.979Z,28.10
2023-02-11T17:20:14.968Z,29.20
2023-02-11T17:22:41.928Z,22.40
2023-02-11T17:25:09.408Z,25.10
2023-02-11T17:27:36.440Z,27.27
2023-02-11T17:30:03.669Z,29.67
2023-02-11T17:32:30.730Z,25.37
2023-02-11T17:34:57.744Z,26.80
2023-02-11T17:37:25.043Z,35.00
2023-02-11T17:39:51.998Z,29.47
2023-02-11T17:42:21.562Z,25.17
2023-02-11T17:44:49.214Z,26.00
2023-02-11T17:47:16.088Z,23.47
2023-02-11T17:49:43.686Z,25.97
2023-02-11T17:52:10.572Z,25.40
2023-02-11T17:54:38.871Z,26.33
2023-02-11T17:57:05.806Z,27.37
2023-02-11T17:59:35.833Z,22.87
2023-02-11T18:02:04.306Z,26.70
2023-02-11T18:04:32.126Z,22.77
2023-02-11T18:06:59.116Z,23.27
2023-02-11T18:09:27.192Z,24.87
2023-02-11T18:11:54.832Z,27.40
2023-02-11T18:14:22.748Z,25.93
2023-02-11T18:16:52.490Z,26.53
2023-02-11T18:19:20.337Z,38.80
2023-02-11T18:21:50.380Z,30.43
2023-02-11T18:24:18.550Z,28.53
2023-02-11T18:26:45.487Z,23.67
2023-02-11T18:29:12.953Z,24.63
2023-02-11T18:31:40.010Z,29.23
2023-02-11T18:34:08.497Z,29.13
2023-02-11T18:36:36.255Z,19.90
2023-02-11T18:39:05.202Z,25.90
2023-02-11T18:41:32.221Z,24.50
2023-02-11T18:44:03.383Z,29.70
2023-02-11T18:46:31.406Z,28.40
2023-02-11T18:48:58.417Z,26.37
2023-02-11T18:51:25.618Z,26.53
2023-02-11T18:53:53.208Z,28.10
2023-02-11T18:56:24.661Z,27.27
2023-02-11T18:58:52.344Z,22.70
2023-02-11T19:01:30.099Z,23.77
2023-02-11T19:03:59.655Z,25.97
2023-02-11T19:06:29.698Z,20.83
2023-02-11T19:09:01.011Z,22.07
2023-02-11T19:11:50.117Z,22.70
2023-02-11T19:14:24.592Z,16.87
2023-02-11T19:16:58.890Z,21.37
2023-02-11T19:19:30.064Z,21.07
2023-02-11T19:21:59.283Z,27.03
2023-02-11T19:24:28.503Z,25.03
2023-02-11T19:27:02.886Z,19.47
2023-02-11T19:29:33.599Z,18.00
2023-02-11T19:32:01.621Z,20.70
2023-02-11T19:34:28.745Z,21.03
2023-02-11T19:36:56.842Z,15.83
2023-02-11T19:39:24.924Z,17.87
2023-02-11T19:41:52.612Z,18.07
2023-02-11T19:44:19.655Z,23.80
2023-02-11T19:46:48.963Z,21.20
2023-02-11T19:49:23.054Z,18.80
2023-02-11T19:51:55.458Z,19.03
2023-02-11T19:54:22.646Z,22.40
2023-02-11T19:56:49.565Z,21.17
2023-02-11T19:59:16.582Z,20.53
2023-02-11T20:01:44.518Z,23.87
2023-02-11T20:04:13.306Z,22.67
2023-02-11T20:06:40.283Z,22.77
2023-02-11T20:09:11.500Z,24.00
2023-02-11T20:11:39.938Z,23.63
2023-02-11T20:14:08.641Z,24.53
2023-02-11T20:16:47.679Z,21.47
2023-02-11T20:19:22.389Z,23.10
2023-02-11T20:21:56.154Z,22.00
2023-02-11T20:24:26.526Z,18.73
2023-02-11T20:26:56.283Z,18.83
2023-02-11T20:29:25.549Z,19.50
2023-02-11T20:31:52.664Z,19.63
2023-02-11T20:34:21.809Z,20.87
2023-02-11T20:36:52.259Z,20.83
2023-02-11T20:39:22.977Z,22.20
2023-02-11T20:41:51.759Z,16.03
2023-02-11T20:44:19.591Z,17.10
2023-02-11T20:46:46.842Z,16.17
2023-02-11T20:49:24.916Z,22.70
2023-02-11T20:51:54.322Z,20.23
2023-02-11T20:54:23.852Z,16.77
2023-02-11T20:56:52.504Z,19.77
2023-02-11T20:59:23.950Z,16.90
2023-02-11T21:01:55.588Z,18.40
2023-02-11T21:04:30.033Z,22.20
2023-02-11T21:07:02.122Z,18.70
2023-02-11T21:09:33.491Z,22.50
2023-02-11T21:12:04.116Z,21.97
2023-02-11T21:14:31.691Z,19.70
2023-02-11T21:16:59.053Z,22.10
2023-02-11T21:19:26.501Z,23.20
2023-02-11T21:21:55.318Z,22.50
2023-02-11T21:24:22.409Z,20.87
2023-02-11T21:26:49.354Z,20.43
2023-02-11T21:29:16.425Z,19.80
2023-02-11T21:31:43.576Z,17.00
2023-02-11T21:34:11.150Z,17.93
2023-02-11T21:36:38.090Z,18.70
2023-02-11T21:39:06.293Z,19.77
2023-02-11T21:41:33.980Z,15.67
2023-02-11T21:44:01.291Z,18.97
2023-02-11T21:46:28.644Z,19.57
2023-02-11T21:48:55.766Z,17.93
2023-02-11T21:51:25.309Z,18.60
2023-02-11T21:54:04.019Z,17.30
2023-02-11T21:56:34.371Z,19.20
2023-02-11T21:59:01.459Z,16.80
2023-02-11T22:01:33.049Z,20.53
2023-02-11T22:04:00.451Z,19.43
2023-02-11T22:06:31.286Z,22.10
2023-02-11T22:09:01.869Z,19.37
2023-02-11T22:11:28.971Z,21.07
2023-02-11T22:13:57.921Z,20.53
2023-02-11T22:16:27.213Z,22.17
2023-02-11T22:18:56.145Z,18.93
2023-02-11T22:21:23.437Z,18.83
2023-02-11T22:23:52.030Z,16.07
2023-02-11T22:26:22.718Z,19.20
2023-02-11T22:28:51.603Z,28.80
2023-02-11T22:31:26.499Z,23.50
2023-02-11T22:33:53.892Z,20.60
2023-02-11T22:36:27.776Z,24.83
2023-02-11T22:38:55.064Z,22.87
2023-02-11T22:41:23.644Z,22.77
2023-02-11T22:43:51.158Z,24.53
2023-02-11T22:46:20.318Z,26.00
2023-02-11T22:48:48.441Z,21.77
2023-02-11T22:51:25.484Z,27.37
2023-02-11T22:53:53.166Z,28.90
2023-02-11T22:56:20.863Z,22.33
2023-02-11T22:58:48.529Z,23.57
2023-02-11T23:01:16.109Z,24.20
2023-02-11T23:03:44.221Z,23.37
2023-02-11T23:06:12.144Z,22.63
2023-02-11T23:08:40.927Z,21.93
2023-02-11T23:11:16.276Z,22.93
2023-02-11T23:13:45.155Z,21.93
2023-02-11T23:16:17.575Z,22.67
2023-02-11T23:18:46.240Z,24.87
2023-02-11T23:21:26.225Z,25.10
2023-02-11T23:24:08.069Z,23.03
2023-02-11T23:26:37.660Z,27.03
2023-02-11T23:29:04.650Z,24.83
2023-02-11T23:31:38.227Z,20.90
2023-02-11T23:34:07.198Z,23.83
2023-02-11T23:36:34.191Z,22.27
2023-02-11T23:39:01.646Z,27.17
2023-02-11T23:41:28.715Z,23.93
2023-02-11T23:43:58.037Z,26.70
2023-02-11T23:46:27.249Z,27.10
2023-02-11T23:48:55.122Z,27.00
2023-02-11T23:51:22.913Z,27.67
2023-02-11T23:53:51.617Z,34.10
2023-02-11T23:56:26.193Z,30.73
2023-02-11T23:58:56.609Z,32.73
